Weber Basin Water
2837 E Hwy 193, Layton
Last Weather Update:4/16/2012 11:00:00 AM
Date
ETo
ETc
Rain
Irrigation
Req
Temp
Max
Temp
Min
Temp
Avg
Avg RH
Avg Wind
Avg Solar
inches
inches
incehs
inches
F
F
F
%
%
watts/m2
3/1/2012 0.03" 0.00" 0.15" -0.15" 33.2° 20.8° 26.6° 75.8% 2.3 MPH 88.3w/m2
3/2/2012 0.05" 0.00" 0.17" -0.17" 33.0° 19.1° 24.8° 65.6% 3.0 MPH 159.7w/m2
3/3/2012 0.04" 0.00" 0.00" 0.00" 39.6° 23.4° 32.2° 52.8% 3.2 MPH 83.6w/m2
3/4/2012 0.10" 0.00" 0.00" 0.00" 52.1° 33.5° 41.5° 48.5% 2.3 MPH 209.0w/m2
3/5/2012 0.12" 0.00" 0.00" 0.00" 62.8° 31.6° 46.8° 37.6% 3.6 MPH 199.6w/m2
3/6/2012 0.07" 0.00" 0.00" 0.00" 55.8° 23.8° 43.4° 44.8% 5.6 MPH 55.8w/m2
3/7/2012 0.08" 0.00" 0.15" -0.15" 41.1° 22.3° 31.0° 58.2% 5.0 MPH 198.0w/m2
3/8/2012 0.09" 0.00" 0.00" 0.00" 46.3° 23.9° 34.9° 42.9% 3.2 MPH 217.5w/m2
3/9/2012 0.09" 0.00" 0.00" 0.00" 52.2° 26.5° 37.7° 49.9% 1.8 MPH 216.0w/m2
3/10/2012 0.11" 0.00" 0.00" 0.00" 57.5° 28.7° 42.2° 43.1% 1.8 MPH 220.0w/m2
3/11/2012 0.13" 0.00" 0.00" 0.00" 61.5° 34.6° 48.4° 33.7% 3.7 MPH 212.4w/m2
3/12/2012 0.16" 0.00" 0.00" 0.00" 64.2° 38.9° 53.2° 23.8% 5.4 MPH 220.1w/m2
3/13/2012 0.14" 0.00" 0.00" 0.00" 61.1° 50.3° 55.5° 19.4% 7.1 MPH 116.0w/m2
3/14/2012 0.11" 0.00" 0.00" 0.00" 57.8° 48.1° 54.2° 26.9% 4.3 MPH 109.0w/m2
3/15/2012 0.14" 0.00" 0.00" 0.00" 67.2° 43.0° 55.1° 34.1% 2.8 MPH 216.2w/m2
3/16/2012 0.13" 0.00" 0.00" 0.00" 61.9° 53.4° 57.9° 25.9% 6.1 MPH 96.3w/m2
3/17/2012 0.17" 0.00" 0.00" 0.00" 63.7° 47.8° 56.6° 29.8% 9.0 MPH 103.9w/m2
3/18/2012 0.05" 0.00" 0.38" -0.38" 49.2° 29.5° 38.9° 64.2% 5.7 MPH 71.8w/m2
3/19/2012 0.06" 0.00" 0.12" -0.12" 41.5° 28.7° 32.9° 61.8% 3.7 MPH 147.6w/m2
3/20/2012 0.09" 0.00" 0.00" 0.00" 45.2° 24.0° 34.9° 46.6% 2.6 MPH 228.7w/m2
3/21/2012 0.13" 0.00" 0.00" 0.00" 60.9° 37.5° 48.5° 37.1% 2.5 MPH 236.3w/m2
3/22/2012 0.15" 0.00" 0.00" 0.00" 70.5° 37.9° 55.6° 27.8% 2.6 MPH 243.3w/m2
3/23/2012 0.15" 0.00" 0.00" 0.00" 68.5° 55.7° 61.7° 21.5% 4.9 MPH 151.3w/m2
3/24/2012 0.16" 0.00" 0.00" 0.00" 71.2° 47.0° 59.5° 25.0% 3.6 MPH 227.3w/m2
3/25/2012 0.13" 0.00" 0.00" 0.00" 70.8° 52.1° 61.3° 21.8% 3.5 MPH 160.2w/m2
3/26/2012 0.08" 0.00" 0.33" -0.33" 59.5° 33.0° 46.3° 44.1% 5.1 MPH 155.1w/m2
3/27/2012 0.11" 0.00" 0.00" 0.00" 58.8° 34.9° 47.0° 37.6% 2.2 MPH 193.5w/m2
3/28/2012 0.12" 0.00" 0.03" -0.03" 61.8° 42.5° 51.3° 36.9% 4.0 MPH 150.7w/m2
3/29/2012 0.10" 0.00" 0.02" -0.02" 56.8° 34.9° 46.6° 59.1% 2.3 MPH 165.6w/m2
3/30/2012 0.14" 0.00" 0.00" 0.00" 67.3° 41.1° 55.5° 42.3% 2.8 MPH 210.5w/m2
3/31/2012 0.24" 0.00" 0.00" 0.00" 75.7° 50.2° 64.0° 25.1% 8.0 MPH 262.9w/m2
Totals: 3.48" 0.00" 1.35" -1.35" 75.7° 19.1° 46.6° 40.8% 4.0 MPH 171.8w/m2